sensor_id;sensor_type;location;lat;lon;timestamp;P1;durP1;ratioP1;P2;durP2;ratioP2
3999;SDS011;2014;53.604;10.112;2022-09-01T00:01:35;1.40;;;1.30;;
3999;SDS011;2014;53.604;10.112;2022-09-01T00:04:03;4.67;;;0.80;;
3999;SDS011;2014;53.604;10.112;2022-09-01T00:06:33;0.60;;;0.60;;
3999;SDS011;2014;53.604;10.112;2022-09-01T00:09:04;0.97;;;0.93;;
3999;SDS011;2014;53.604;10.112;2022-09-01T00:11:31;0.77;;;0.77;;
3999;SDS011;2014;53.604;10.112;2022-09-01T00:14:00;0.80;;;0.80;;
3999;SDS011;2014;53.604;10.112;2022-09-01T00:16:27;1.00;;;1.00;;
3999;SDS011;2014;53.604;10.112;2022-09-01T00:18:56;2.13;;;1.27;;
3999;SDS011;2014;53.604;10.112;2022-09-01T00:21:24;0.70;;;0.70;;
3999;SDS011;2014;53.604;10.112;2022-09-01T00:23:52;1.27;;;0.90;;
3999;SDS011;2014;53.604;10.112;2022-09-01T00:26:21;0.70;;;0.70;;
3999;SDS011;2014;53.604;10.112;2022-09-01T00:28:48;1.00;;;0.90;;
3999;SDS011;2014;53.604;10.112;2022-09-01T00:31:15;0.70;;;0.70;;
3999;SDS011;2014;53.604;10.112;2022-09-01T00:33:44;0.90;;;0.90;;
3999;SDS011;2014;53.604;10.112;2022-09-01T00:36:11;2.30;;;0.73;;
3999;SDS011;2014;53.604;10.112;2022-09-01T00:38:39;0.60;;;0.60;;
3999;SDS011;2014;53.604;10.112;2022-09-01T00:41:06;0.93;;;0.93;;
3999;SDS011;2014;53.604;10.112;2022-09-01T00:43:40;1.20;;;1.20;;
3999;SDS011;2014;53.604;10.112;2022-09-01T00:46:09;1.20;;;1.10;;
3999;SDS011;2014;53.604;10.112;2022-09-01T00:48:37;0.70;;;0.70;;
3999;SDS011;2014;53.604;10.112;2022-09-01T00:51:05;4.13;;;1.20;;
3999;SDS011;2014;53.604;10.112;2022-09-01T00:53:33;0.83;;;0.83;;
3999;SDS011;2014;53.604;10.112;2022-09-01T00:56:01;1.20;;;1.10;;
3999;SDS011;2014;53.604;10.112;2022-09-01T00:58:29;1.37;;;0.77;;
3999;SDS011;2014;53.604;10.112;2022-09-01T01:00:58;3.80;;;0.70;;
3999;SDS011;2014;53.604;10.112;2022-09-01T01:03:27;0.70;;;0.60;;
3999;SDS011;2014;53.604;10.112;2022-09-01T01:05:55;0.70;;;0.70;;
3999;SDS011;2014;53.604;10.112;2022-09-01T01:08:24;2.10;;;1.00;;
3999;SDS011;2014;53.604;10.112;2022-09-01T01:10:58;0.60;;;0.60;;
3999;SDS011;2014;53.604;10.112;2022-09-01T01:13:25;0.90;;;0.90;;
3999;SDS011;2014;53.604;10.112;2022-09-01T01:15:55;0.77;;;0.77;;
3999;SDS011;2014;53.604;10.112;2022-09-01T01:18:24;0.80;;;0.80;;
3999;SDS011;2014;53.604;10.112;2022-09-01T01:20:56;1.40;;;1.23;;
3999;SDS011;2014;53.604;10.112;2022-09-01T01:23:43;0.80;;;0.80;;
3999;SDS011;2014;53.604;10.112;2022-09-01T01:26:13;1.00;;;0.90;;
3999;SDS011;2014;53.604;10.112;2022-09-01T01:28:41;0.87;;;0.87;;
3999;SDS011;2014;53.604;10.112;2022-09-01T01:31:09;0.80;;;0.80;;
3999;SDS011;2014;53.604;10.112;2022-09-01T01:33:38;0.90;;;0.67;;
3999;SDS011;2014;53.604;10.112;2022-09-01T01:36:06;5.73;;;0.80;;
3999;SDS011;2014;53.604;10.112;2022-09-01T01:38:36;1.23;;;0.87;;
3999;SDS011;2014;53.604;10.112;2022-09-01T01:41:05;1.17;;;0.90;;
3999;SDS011;2014;53.604;10.112;2022-09-01T01:43:34;0.80;;;0.80;;
3999;SDS011;2014;53.604;10.112;2022-09-01T01:46:02;0.90;;;0.90;;
3999;SDS011;2014;53.604;10.112;2022-09-01T01:48:31;3.10;;;0.80;;
3999;SDS011;2014;53.604;10.112;2022-09-01T01:50:59;1.20;;;0.90;;
3999;SDS011;2014;53.604;10.112;2022-09-01T01:53:28;4.40;;;0.70;;
3999;SDS011;2014;53.604;10.112;2022-09-01T01:55:56;0.90;;;0.90;;
3999;SDS011;2014;53.604;10.112;2022-09-01T01:58:25;0.60;;;0.60;;
3999;SDS011;2014;53.604;10.112;2022-09-01T02:00:55;0.93;;;0.80;;
3999;SDS011;2014;53.604;10.112;2022-09-01T02:03:26;1.13;;;1.03;;
3999;SDS011;2014;53.604;10.112;2022-09-01T02:05:55;2.40;;;0.97;;
3999;SDS011;2014;53.604;10.112;2022-09-01T02:08:28;3.60;;;1.00;;
3999;SDS011;2014;53.604;10.112;2022-09-01T02:10:57;2.70;;;1.00;;
3999;SDS011;2014;53.604;10.112;2022-09-01T02:13:24;1.03;;;0.90;;
3999;SDS011;2014;53.604;10.112;2022-09-01T02:15:57;1.53;;;0.80;;
3999;SDS011;2014;53.604;10.112;2022-09-01T02:18:25;1.10;;;1.10;;
3999;SDS011;2014;53.604;10.112;2022-09-01T02:20:55;0.63;;;0.63;;
3999;SDS011;2014;53.604;10.112;2022-09-01T02:23:23;0.93;;;0.93;;
3999;SDS011;2014;53.604;10.112;2022-09-01T02:25:53;2.60;;;0.90;;
3999;SDS011;2014;53.604;10.112;2022-09-01T02:28:22;1.17;;;0.80;;
3999;SDS011;2014;53.604;10.112;2022-09-01T02:30:51;3.20;;;0.90;;
3999;SDS011;2014;53.604;10.112;2022-09-01T02:33:21;0.90;;;0.90;;
3999;SDS011;2014;53.604;10.112;2022-09-01T02:35:50;0.90;;;0.90;;
3999;SDS011;2014;53.604;10.112;2022-09-01T02:38:18;0.80;;;0.80;;
3999;SDS011;2014;53.604;10.112;2022-09-01T02:40:48;0.80;;;0.80;;
3999;SDS011;2014;53.604;10.112;2022-09-01T02:43:15;1.13;;;1.00;;
3999;SDS011;2014;53.604;10.112;2022-09-01T02:45:45;0.70;;;0.70;;
3999;SDS011;2014;53.604;10.112;2022-09-01T02:48:16;0.90;;;0.57;;
3999;SDS011;2014;53.604;10.112;2022-09-01T02:50:44;0.77;;;0.77;;
3999;SDS011;2014;53.604;10.112;2022-09-01T02:53:11;1.10;;;1.10;;
3999;SDS011;2014;53.604;10.112;2022-09-01T02:55:40;0.90;;;0.90;;
3999;SDS011;2014;53.604;10.112;2022-09-01T02:58:08;1.97;;;1.10;;
3999;SDS011;2014;53.604;10.112;2022-09-01T03:00:40;1.10;;;1.10;;
3999;SDS011;2014;53.604;10.112;2022-09-01T03:03:08;2.80;;;0.80;;
3999;SDS011;2014;53.604;10.112;2022-09-01T03:05:37;2.30;;;1.10;;
3999;SDS011;2014;53.604;10.112;2022-09-01T03:08:07;0.77;;;0.77;;
3999;SDS011;2014;53.604;10.112;2022-09-01T03:10:37;1.07;;;0.80;;
3999;SDS011;2014;53.604;10.112;2022-09-01T03:13:06;0.80;;;0.80;;
3999;SDS011;2014;53.604;10.112;2022-09-01T03:15:34;1.90;;;0.83;;
3999;SDS011;2014;53.604;10.112;2022-09-01T03:18:03;0.97;;;0.70;;
3999;SDS011;2014;53.604;10.112;2022-09-01T03:20:32;1.17;;;0.77;;
3999;SDS011;2014;53.604;10.112;2022-09-01T03:23:00;0.80;;;0.80;;
3999;SDS011;2014;53.604;10.112;2022-09-01T03:25:30;1.33;;;0.80;;
3999;SDS011;2014;53.604;10.112;2022-09-01T03:27:58;1.13;;;1.13;;
3999;SDS011;2014;53.604;10.112;2022-09-01T03:30:26;0.80;;;0.80;;
3999;SDS011;2014;53.604;10.112;2022-09-01T03:32:54;1.07;;;0.97;;
3999;SDS011;2014;53.604;10.112;2022-09-01T03:35:21;1.00;;;0.90;;
3999;SDS011;2014;53.604;10.112;2022-09-01T03:37:49;0.90;;;0.90;;
3999;SDS011;2014;53.604;10.112;2022-09-01T03:40:17;1.27;;;1.20;;
3999;SDS011;2014;53.604;10.112;2022-09-01T03:42:46;0.90;;;0.90;;
3999;SDS011;2014;53.604;10.112;2022-09-01T03:45:14;1.10;;;1.10;;
3999;SDS011;2014;53.604;10.112;2022-09-01T03:47:44;1.17;;;1.17;;
3999;SDS011;2014;53.604;10.112;2022-09-01T03:50:13;1.00;;;1.00;;
3999;SDS011;2014;53.604;10.112;2022-09-01T03:52:44;1.00;;;0.90;;
3999;SDS011;2014;53.604;10.112;2022-09-01T03:55:13;1.23;;;1.23;;
3999;SDS011;2014;53.604;10.112;2022-09-01T03:57:43;2.30;;;0.90;;
3999;SDS011;2014;53.604;10.112;2022-09-01T04:00:13;0.70;;;0.70;;
3999;SDS011;2014;53.604;10.112;2022-09-01T04:02:45;4.73;;;0.77;;
3999;SDS011;2014;53.604;10.112;2022-09-01T04:05:13;1.13;;;1.03;;
3999;SDS011;2014;53.604;10.112;2022-09-01T04:07:40;1.00;;;0.90;;
3999;SDS011;2014;53.604;10.112;2022-09-01T04:10:10;1.07;;;1.07;;
3999;SDS011;2014;53.604;10.112;2022-09-01T04:12:38;1.00;;;1.00;;
3999;SDS011;2014;53.604;10.112;2022-09-01T04:15:05;9.03;;;1.17;;
3999;SDS011;2014;53.604;10.112;2022-09-01T04:17:35;1.27;;;1.07;;
3999;SDS011;2014;53.604;10.112;2022-09-01T04:20:20;1.30;;;1.20;;
3999;SDS011;2014;53.604;10.112;2022-09-01T04:22:47;1.57;;;1.47;;
3999;SDS011;2014;53.604;10.112;2022-09-01T04:25:17;1.33;;;1.10;;
3999;SDS011;2014;53.604;10.112;2022-09-01T04:27:50;1.77;;;1.23;;
3999;SDS011;2014;53.604;10.112;2022-09-01T04:30:19;1.00;;;1.00;;
3999;SDS011;2014;53.604;10.112;2022-09-01T04:32:50;1.33;;;1.23;;
3999;SDS011;2014;53.604;10.112;2022-09-01T04:35:20;4.57;;;1.50;;
3999;SDS011;2014;53.604;10.112;2022-09-01T04:37:52;1.57;;;1.00;;
3999;SDS011;2014;53.604;10.112;2022-09-01T04:40:19;1.00;;;1.00;;
3999;SDS011;2014;53.604;10.112;2022-09-01T04:42:47;1.50;;;1.30;;
3999;SDS011;2014;53.604;10.112;2022-09-01T04:45:29;2.37;;;1.20;;
3999;SDS011;2014;53.604;10.112;2022-09-01T04:47:57;4.13;;;1.43;;
3999;SDS011;2014;53.604;10.112;2022-09-01T04:50:25;1.40;;;1.30;;
3999;SDS011;2014;53.604;10.112;2022-09-01T04:52:56;1.40;;;1.30;;
3999;SDS011;2014;53.604;10.112;2022-09-01T04:55:25;1.30;;;1.20;;
3999;SDS011;2014;53.604;10.112;2022-09-01T04:57:54;1.30;;;1.30;;
3999;SDS011;2014;53.604;10.112;2022-09-01T05:00:22;1.50;;;1.47;;
3999;SDS011;2014;53.604;10.112;2022-09-01T05:02:51;2.40;;;1.37;;
3999;SDS011;2014;53.604;10.112;2022-09-01T05:05:20;1.40;;;1.40;;
3999;SDS011;2014;53.604;10.112;2022-09-01T05:07:48;3.07;;;1.17;;
3999;SDS011;2014;53.604;10.112;2022-09-01T05:10:17;3.83;;;1.57;;
3999;SDS011;2014;53.604;10.112;2022-09-01T05:12:45;2.93;;;1.90;;
3999;SDS011;2014;53.604;10.112;2022-09-01T05:15:13;3.23;;;1.70;;
3999;SDS011;2014;53.604;10.112;2022-09-01T05:17:41;1.63;;;1.13;;
3999;SDS011;2014;53.604;10.112;2022-09-01T05:20:09;1.27;;;1.27;;
3999;SDS011;2014;53.604;10.112;2022-09-01T05:22:39;1.60;;;1.50;;
3999;SDS011;2014;53.604;10.112;2022-09-01T05:25:07;1.67;;;1.57;;
3999;SDS011;2014;53.604;10.112;2022-09-01T05:27:39;1.50;;;1.40;;
3999;SDS011;2014;53.604;10.112;2022-09-01T05:30:06;1.33;;;1.33;;
3999;SDS011;2014;53.604;10.112;2022-09-01T05:32:34;1.10;;;1.10;;
3999;SDS011;2014;53.604;10.112;2022-09-01T05:35:04;1.67;;;1.57;;
3999;SDS011;2014;53.604;10.112;2022-09-01T05:37:33;1.67;;;1.53;;
3999;SDS011;2014;53.604;10.112;2022-09-01T05:40:03;2.00;;;1.77;;
3999;SDS011;2014;53.604;10.112;2022-09-01T05:42:31;1.80;;;1.70;;
3999;SDS011;2014;53.604;10.112;2022-09-01T05:44:58;1.53;;;1.43;;
3999;SDS011;2014;53.604;10.112;2022-09-01T05:47:26;1.30;;;1.20;;
3999;SDS011;2014;53.604;10.112;2022-09-01T05:49:54;1.53;;;1.43;;
3999;SDS011;2014;53.604;10.112;2022-09-01T05:52:25;1.80;;;1.10;;
3999;SDS011;2014;53.604;10.112;2022-09-01T05:54:54;1.50;;;1.40;;
3999;SDS011;2014;53.604;10.112;2022-09-01T05:57:23;1.10;;;1.10;;
3999;SDS011;2014;53.604;10.112;2022-09-01T05:59:50;1.30;;;1.20;;
3999;SDS011;2014;53.604;10.112;2022-09-01T06:02:19;1.00;;;1.00;;
3999;SDS011;2014;53.604;10.112;2022-09-01T06:04:46;1.20;;;1.10;;
3999;SDS011;2014;53.604;10.112;2022-09-01T06:07:14;6.30;;;1.40;;
3999;SDS011;2014;53.604;10.112;2022-09-01T06:09:43;1.53;;;1.20;;
3999;SDS011;2014;53.604;10.112;2022-09-01T06:12:11;1.10;;;1.10;;
3999;SDS011;2014;53.604;10.112;2022-09-01T06:14:44;1.23;;;1.13;;
3999;SDS011;2014;53.604;10.112;2022-09-01T06:17:11;4.60;;;2.30;;
3999;SDS011;2014;53.604;10.112;2022-09-01T06:19:40;1.20;;;1.20;;
3999;SDS011;2014;53.604;10.112;2022-09-01T06:22:08;1.03;;;0.93;;
3999;SDS011;2014;53.604;10.112;2022-09-01T06:24:35;1.00;;;0.80;;
3999;SDS011;2014;53.604;10.112;2022-09-01T06:27:04;1.50;;;1.40;;
3999;SDS011;2014;53.604;10.112;2022-09-01T06:29:34;1.60;;;0.90;;
3999;SDS011;2014;53.604;10.112;2022-09-01T06:32:05;1.77;;;1.17;;
3999;SDS011;2014;53.604;10.112;2022-09-01T06:34:34;0.80;;;0.80;;
3999;SDS011;2014;53.604;10.112;2022-09-01T06:37:01;1.53;;;1.43;;
3999;SDS011;2014;53.604;10.112;2022-09-01T06:39:28;2.50;;;1.10;;
3999;SDS011;2014;53.604;10.112;2022-09-01T06:41:56;2.23;;;1.27;;
3999;SDS011;2014;53.604;10.112;2022-09-01T06:44:25;2.30;;;2.10;;
3999;SDS011;2014;53.604;10.112;2022-09-01T06:46:54;12.50;;;11.33;;
3999;SDS011;2014;53.604;10.112;2022-09-01T06:49:23;4.27;;;3.93;;
3999;SDS011;2014;53.604;10.112;2022-09-01T06:51:56;8.30;;;2.00;;
3999;SDS011;2014;53.604;10.112;2022-09-01T06:54:24;1.60;;;1.00;;
3999;SDS011;2014;53.604;10.112;2022-09-01T06:56:53;1.53;;;1.27;;
3999;SDS011;2014;53.604;10.112;2022-09-01T06:59:20;0.93;;;0.93;;
3999;SDS011;2014;53.604;10.112;2022-09-01T07:01:51;2.10;;;1.37;;
3999;SDS011;2014;53.604;10.112;2022-09-01T07:04:18;1.43;;;1.33;;
3999;SDS011;2014;53.604;10.112;2022-09-01T07:06:48;2.30;;;1.00;;
3999;SDS011;2014;53.604;10.112;2022-09-01T07:09:16;1.43;;;0.77;;
3999;SDS011;2014;53.604;10.112;2022-09-01T07:11:44;1.23;;;0.87;;
3999;SDS011;2014;53.604;10.112;2022-09-01T07:14:11;1.30;;;1.17;;
3999;SDS011;2014;53.604;10.112;2022-09-01T07:16:40;1.00;;;1.00;;
3999;SDS011;2014;53.604;10.112;2022-09-01T07:19:09;1.73;;;0.80;;
3999;SDS011;2014;53.604;10.112;2022-09-01T07:21:39;8.50;;;0.70;;
3999;SDS011;2014;53.604;10.112;2022-09-01T07:24:08;1.57;;;0.70;;
3999;SDS011;2014;53.604;10.112;2022-09-01T07:26:36;2.30;;;1.03;;
3999;SDS011;2014;53.604;10.112;2022-09-01T07:29:04;3.37;;;3.23;;
3999;SDS011;2014;53.604;10.112;2022-09-01T07:31:34;13.77;;;10.70;;
3999;SDS011;2014;53.604;10.112;2022-09-01T07:34:05;7.60;;;6.90;;
3999;SDS011;2014;53.604;10.112;2022-09-01T07:36:36;3.40;;;3.10;;
3999;SDS011;2014;53.604;10.112;2022-09-01T07:39:04;1.63;;;1.47;;
3999;SDS011;2014;53.604;10.112;2022-09-01T07:41:33;1.13;;;1.00;;
3999;SDS011;2014;53.604;10.112;2022-09-01T07:44:03;1.00;;;0.80;;
3999;SDS011;2014;53.604;10.112;2022-09-01T07:46:34;5.90;;;1.00;;
3999;SDS011;2014;53.604;10.112;2022-09-01T07:49:01;30.47;;;24.37;;
3999;SDS011;2014;53.604;10.112;2022-09-01T07:51:30;16.60;;;13.50;;
3999;SDS011;2014;53.604;10.112;2022-09-01T07:53:59;19.17;;;16.37;;
3999;SDS011;2014;53.604;10.112;2022-09-01T07:56:27;4.27;;;4.03;;
3999;SDS011;2014;53.604;10.112;2022-09-01T07:58:56;3.07;;;2.87;;
3999;SDS011;2014;53.604;10.112;2022-09-01T08:01:25;0.80;;;0.80;;
3999;SDS011;2014;53.604;10.112;2022-09-01T08:03:53;2.63;;;2.43;;
3999;SDS011;2014;53.604;10.112;2022-09-01T08:06:21;3.33;;;1.90;;
3999;SDS011;2014;53.604;10.112;2022-09-01T08:08:50;9.37;;;8.13;;
3999;SDS011;2014;53.604;10.112;2022-09-01T08:11:19;11.70;;;10.50;;
3999;SDS011;2014;53.604;10.112;2022-09-01T08:13:49;5.47;;;4.93;;
3999;SDS011;2014;53.604;10.112;2022-09-01T08:16:18;2.50;;;1.73;;
3999;SDS011;2014;53.604;10.112;2022-09-01T08:19:07;29.07;;;21.60;;
3999;SDS011;2014;53.604;10.112;2022-09-01T08:21:48;32.10;;;25.57;;
3999;SDS011;2014;53.604;10.112;2022-09-01T08:24:15;10.23;;;9.33;;
3999;SDS011;2014;53.604;10.112;2022-09-01T08:26:43;3.90;;;3.80;;
3999;SDS011;2014;53.604;10.112;2022-09-01T08:29:10;2.30;;;1.60;;
3999;SDS011;2014;53.604;10.112;2022-09-01T08:31:39;0.90;;;0.70;;
3999;SDS011;2014;53.604;10.112;2022-09-01T08:34:06;1.07;;;0.97;;
3999;SDS011;2014;53.604;10.112;2022-09-01T08:36:37;1.17;;;1.07;;
3999;SDS011;2014;53.604;10.112;2022-09-01T08:39:04;0.90;;;0.90;;
3999;SDS011;2014;53.604;10.112;2022-09-01T08:41:37;1.53;;;0.80;;
3999;SDS011;2014;53.604;10.112;2022-09-01T08:44:08;0.80;;;0.80;;
3999;SDS011;2014;53.604;10.112;2022-09-01T08:46:41;0.67;;;0.50;;
3999;SDS011;2014;53.604;10.112;2022-09-01T08:49:12;1.33;;;0.40;;
3999;SDS011;2014;53.604;10.112;2022-09-01T08:51:41;4.00;;;2.80;;
3999;SDS011;2014;53.604;10.112;2022-09-01T08:54:12;3.83;;;3.67;;
3999;SDS011;2014;53.604;10.112;2022-09-01T08:56:40;5.90;;;5.40;;
3999;SDS011;2014;53.604;10.112;2022-09-01T08:59:08;7.27;;;6.80;;
3999;SDS011;2014;53.604;10.112;2022-09-01T09:01:39;2.10;;;2.00;;
3999;SDS011;2014;53.604;10.112;2022-09-01T09:04:18;1.83;;;0.73;;
3999;SDS011;2014;53.604;10.112;2022-09-01T09:06:50;0.60;;;0.60;;
3999;SDS011;2014;53.604;10.112;2022-09-01T09:09:20;0.70;;;0.60;;
3999;SDS011;2014;53.604;10.112;2022-09-01T09:11:55;0.60;;;0.60;;
3999;SDS011;2014;53.604;10.112;2022-09-01T09:14:27;0.80;;;0.60;;
3999;SDS011;2014;53.604;10.112;2022-09-01T09:16:59;0.67;;;0.50;;
3999;SDS011;2014;53.604;10.112;2022-09-01T09:19:33;0.90;;;0.90;;
3999;SDS011;2014;53.604;10.112;2022-09-01T09:22:03;5.07;;;0.60;;
3999;SDS011;2014;53.604;10.112;2022-09-01T09:24:31;0.60;;;0.50;;
3999;SDS011;2014;53.604;10.112;2022-09-01T09:27:15;0.60;;;0.50;;
3999;SDS011;2014;53.604;10.112;2022-09-01T09:29:44;4.70;;;4.03;;
3999;SDS011;2014;53.604;10.112;2022-09-01T09:32:12;0.60;;;0.40;;
3999;SDS011;2014;53.604;10.112;2022-09-01T09:34:41;2.50;;;2.40;;
3999;SDS011;2014;53.604;10.112;2022-09-01T09:37:16;0.60;;;0.60;;
3999;SDS011;2014;53.604;10.112;2022-09-01T09:39:43;1.57;;;0.67;;
3999;SDS011;2014;53.604;10.112;2022-09-01T09:42:12;3.17;;;0.60;;
3999;SDS011;2014;53.604;10.112;2022-09-01T09:44:41;3.33;;;0.70;;
3999;SDS011;2014;53.604;10.112;2022-09-01T09:47:09;2.57;;;2.37;;
3999;SDS011;2014;53.604;10.112;2022-09-01T09:49:36;0.73;;;0.73;;
3999;SDS011;2014;53.604;10.112;2022-09-01T09:52:16;0.50;;;0.50;;
3999;SDS011;2014;53.604;10.112;2022-09-01T09:55:01;0.60;;;0.60;;
3999;SDS011;2014;53.604;10.112;2022-09-01T09:57:28;0.60;;;0.50;;
3999;SDS011;2014;53.604;10.112;2022-09-01T09:59:56;3.00;;;0.77;;
3999;SDS011;2014;53.604;10.112;2022-09-01T10:02:26;2.27;;;0.90;;
3999;SDS011;2014;53.604;10.112;2022-09-01T10:04:55;1.50;;;0.53;;
3999;SDS011;2014;53.604;10.112;2022-09-01T10:07:29;0.60;;;0.43;;
3999;SDS011;2014;53.604;10.112;2022-09-01T10:09:57;0.60;;;0.50;;
3999;SDS011;2014;53.604;10.112;2022-09-01T10:12:25;0.60;;;0.60;;
3999;SDS011;2014;53.604;10.112;2022-09-01T10:14:54;1.10;;;0.50;;
3999;SDS011;2014;53.604;10.112;2022-09-01T10:17:24;0.70;;;0.50;;
3999;SDS011;2014;53.604;10.112;2022-09-01T10:19:52;2.20;;;0.60;;
3999;SDS011;2014;53.604;10.112;2022-09-01T10:22:20;0.73;;;0.50;;
3999;SDS011;2014;53.604;10.112;2022-09-01T10:24:50;0.60;;;0.50;;
3999;SDS011;2014;53.604;10.112;2022-09-01T10:27:18;0.57;;;0.57;;
3999;SDS011;2014;53.604;10.112;2022-09-01T10:29:47;1.10;;;0.60;;
3999;SDS011;2014;53.604;10.112;2022-09-01T10:32:17;0.60;;;0.50;;
3999;SDS011;2014;53.604;10.112;2022-09-01T10:34:45;0.90;;;0.50;;
3999;SDS011;2014;53.604;10.112;2022-09-01T10:37:13;0.90;;;0.57;;
3999;SDS011;2014;53.604;10.112;2022-09-01T10:42:30;3.27;;;0.80;;
3999;SDS011;2014;53.604;10.112;2022-09-01T10:44:59;2.30;;;0.80;;
3999;SDS011;2014;53.604;10.112;2022-09-01T10:47:27;0.60;;;0.50;;
3999;SDS011;2014;53.604;10.112;2022-09-01T10:49:56;1.67;;;0.60;;
3999;SDS011;2014;53.604;10.112;2022-09-01T10:55:09;1.63;;;0.60;;
3999;SDS011;2014;53.604;10.112;2022-09-01T10:57:43;0.70;;;0.60;;
3999;SDS011;2014;53.604;10.112;2022-09-01T11:05:58;4.00;;;0.60;;
3999;SDS011;2014;53.604;10.112;2022-09-01T11:08:39;1.00;;;0.60;;
3999;SDS011;2014;53.604;10.112;2022-09-01T11:11:07;0.60;;;0.60;;
3999;SDS011;2014;53.604;10.112;2022-09-01T11:13:42;1.90;;;0.50;;
3999;SDS011;2014;53.604;10.112;2022-09-01T11:16:26;0.60;;;0.50;;
3999;SDS011;2014;53.604;10.112;2022-09-01T11:18:54;1.10;;;1.00;;
3999;SDS011;2014;53.604;10.112;2022-09-01T11:21:23;0.97;;;0.90;;
3999;SDS011;2014;53.604;10.112;2022-09-01T11:26:43;0.60;;;0.60;;
3999;SDS011;2014;53.604;10.112;2022-09-01T11:31:54;0.70;;;0.50;;
3999;SDS011;2014;53.604;10.112;2022-09-01T11:34:22;0.80;;;0.50;;
3999;SDS011;2014;53.604;10.112;2022-09-01T11:36:52;2.50;;;0.60;;
3999;SDS011;2014;53.604;10.112;2022-09-01T11:39:33;1.23;;;1.00;;
3999;SDS011;2014;53.604;10.112;2022-09-01T11:42:02;0.70;;;0.60;;
3999;SDS011;2014;53.604;10.112;2022-09-01T11:44:34;2.30;;;0.60;;
3999;SDS011;2014;53.604;10.112;2022-09-01T11:47:05;1.97;;;1.17;;
3999;SDS011;2014;53.604;10.112;2022-09-01T11:49:33;1.87;;;1.10;;
3999;SDS011;2014;53.604;10.112;2022-09-01T11:52:02;1.90;;;0.93;;
3999;SDS011;2014;53.604;10.112;2022-09-01T11:54:36;4.00;;;1.10;;
3999;SDS011;2014;53.604;10.112;2022-09-01T11:57:16;2.03;;;0.60;;
3999;SDS011;2014;53.604;10.112;2022-09-01T11:59:43;0.60;;;0.47;;
3999;SDS011;2014;53.604;10.112;2022-09-01T12:02:17;0.57;;;0.47;;
3999;SDS011;2014;53.604;10.112;2022-09-01T12:04:45;0.87;;;0.80;;
3999;SDS011;2014;53.604;10.112;2022-09-01T12:07:23;0.77;;;0.50;;
3999;SDS011;2014;53.604;10.112;2022-09-01T12:09:51;0.80;;;0.70;;
3999;SDS011;2014;53.604;10.112;2022-09-01T12:12:29;0.70;;;0.60;;
3999;SDS011;2014;53.604;10.112;2022-09-01T12:14:57;2.10;;;0.70;;
3999;SDS011;2014;53.604;10.112;2022-09-01T12:17:26;3.10;;;0.60;;
3999;SDS011;2014;53.604;10.112;2022-09-01T12:19:53;0.60;;;0.43;;
3999;SDS011;2014;53.604;10.112;2022-09-01T12:22:21;1.37;;;0.67;;
3999;SDS011;2014;53.604;10.112;2022-09-01T12:24:49;0.50;;;0.43;;
3999;SDS011;2014;53.604;10.112;2022-09-01T12:27:17;1.37;;;0.60;;
3999;SDS011;2014;53.604;10.112;2022-09-01T12:29:44;1.23;;;0.80;;
3999;SDS011;2014;53.604;10.112;2022-09-01T12:32:12;0.60;;;0.50;;
3999;SDS011;2014;53.604;10.112;2022-09-01T12:34:42;1.80;;;0.50;;
3999;SDS011;2014;53.604;10.112;2022-09-01T12:37:11;0.90;;;0.50;;
3999;SDS011;2014;53.604;10.112;2022-09-01T12:39:45;1.20;;;0.60;;
3999;SDS011;2014;53.604;10.112;2022-09-01T12:42:22;1.30;;;0.60;;
3999;SDS011;2014;53.604;10.112;2022-09-01T12:44:50;0.77;;;0.77;;
3999;SDS011;2014;53.604;10.112;2022-09-01T12:50:07;1.70;;;0.67;;
3999;SDS011;2014;53.604;10.112;2022-09-01T12:52:35;2.10;;;0.60;;
3999;SDS011;2014;53.604;10.112;2022-09-01T12:55:13;0.60;;;0.50;;
3999;SDS011;2014;53.604;10.112;2022-09-01T12:57:45;0.60;;;0.60;;
3999;SDS011;2014;53.604;10.112;2022-09-01T13:00:16;1.10;;;0.80;;
3999;SDS011;2014;53.604;10.112;2022-09-01T13:02:45;0.50;;;0.50;;
3999;SDS011;2014;53.604;10.112;2022-09-01T13:05:18;2.00;;;0.73;;
3999;SDS011;2014;53.604;10.112;2022-09-01T13:07:46;2.00;;;0.67;;
3999;SDS011;2014;53.604;10.112;2022-09-01T13:10:13;0.60;;;0.50;;
3999;SDS011;2014;53.604;10.112;2022-09-01T13:12:41;5.37;;;0.90;;
3999;SDS011;2014;53.604;10.112;2022-09-01T13:15:11;2.50;;;0.60;;
3999;SDS011;2014;53.604;10.112;2022-09-01T13:17:44;0.80;;;0.80;;
3999;SDS011;2014;53.604;10.112;2022-09-01T13:20:12;0.77;;;0.70;;
3999;SDS011;2014;53.604;10.112;2022-09-01T13:22:41;0.70;;;0.60;;
3999;SDS011;2014;53.604;10.112;2022-09-01T13:25:09;0.60;;;0.60;;
3999;SDS011;2014;53.604;10.112;2022-09-01T13:27:37;0.60;;;0.60;;
3999;SDS011;2014;53.604;10.112;2022-09-01T13:30:09;0.80;;;0.60;;
3999;SDS011;2014;53.604;10.112;2022-09-01T13:32:36;0.80;;;0.50;;
3999;SDS011;2014;53.604;10.112;2022-09-01T13:35:04;0.63;;;0.50;;
3999;SDS011;2014;53.604;10.112;2022-09-01T13:37:32;0.63;;;0.60;;
3999;SDS011;2014;53.604;10.112;2022-09-01T13:40:01;0.80;;;0.50;;
3999;SDS011;2014;53.604;10.112;2022-09-01T13:42:29;2.40;;;1.27;;
3999;SDS011;2014;53.604;10.112;2022-09-01T13:44:56;1.37;;;0.87;;
3999;SDS011;2014;53.604;10.112;2022-09-01T13:47:25;0.73;;;0.73;;
3999;SDS011;2014;53.604;10.112;2022-09-01T13:49:52;0.63;;;0.53;;
3999;SDS011;2014;53.604;10.112;2022-09-01T13:52:20;0.67;;;0.67;;
3999;SDS011;2014;53.604;10.112;2022-09-01T13:54:47;3.47;;;3.20;;
3999;SDS011;2014;53.604;10.112;2022-09-01T13:57:16;1.50;;;1.10;;
3999;SDS011;2014;53.604;10.112;2022-09-01T13:59:43;5.47;;;0.70;;
3999;SDS011;2014;53.604;10.112;2022-09-01T14:02:11;1.60;;;0.80;;
3999;SDS011;2014;53.604;10.112;2022-09-01T14:04:38;2.90;;;0.57;;
3999;SDS011;2014;53.604;10.112;2022-09-01T14:07:05;0.50;;;0.50;;
3999;SDS011;2014;53.604;10.112;2022-09-01T14:09:32;2.73;;;1.00;;
3999;SDS011;2014;53.604;10.112;2022-09-01T14:12:00;1.77;;;0.60;;
3999;SDS011;2014;53.604;10.112;2022-09-01T14:14:28;0.70;;;0.67;;
3999;SDS011;2014;53.604;10.112;2022-09-01T14:16:56;2.20;;;0.60;;
3999;SDS011;2014;53.604;10.112;2022-09-01T14:19:23;0.70;;;0.70;;
3999;SDS011;2014;53.604;10.112;2022-09-01T14:21:51;1.37;;;0.60;;
3999;SDS011;2014;53.604;10.112;2022-09-01T14:24:18;0.70;;;0.70;;
3999;SDS011;2014;53.604;10.112;2022-09-01T14:26:46;2.97;;;0.60;;
3999;SDS011;2014;53.604;10.112;2022-09-01T14:29:14;3.57;;;1.10;;
3999;SDS011;2014;53.604;10.112;2022-09-01T14:31:43;2.20;;;0.70;;
3999;SDS011;2014;53.604;10.112;2022-09-01T14:34:11;0.67;;;0.60;;
3999;SDS011;2014;53.604;10.112;2022-09-01T14:36:41;0.60;;;0.60;;
3999;SDS011;2014;53.604;10.112;2022-09-01T14:39:09;0.50;;;0.50;;
3999;SDS011;2014;53.604;10.112;2022-09-01T14:41:36;0.50;;;0.50;;
3999;SDS011;2014;53.604;10.112;2022-09-01T14:44:04;2.50;;;0.50;;
3999;SDS011;2014;53.604;10.112;2022-09-01T14:46:31;0.60;;;0.60;;
3999;SDS011;2014;53.604;10.112;2022-09-01T14:49:04;1.50;;;0.97;;
3999;SDS011;2014;53.604;10.112;2022-09-01T14:51:31;3.63;;;0.50;;
3999;SDS011;2014;53.604;10.112;2022-09-01T14:54:00;0.60;;;0.60;;
3999;SDS011;2014;53.604;10.112;2022-09-01T14:56:28;2.07;;;0.80;;
3999;SDS011;2014;53.604;10.112;2022-09-01T14:58:55;1.00;;;0.90;;
3999;SDS011;2014;53.604;10.112;2022-09-01T15:01:25;0.90;;;0.50;;
3999;SDS011;2014;53.604;10.112;2022-09-01T15:03:53;0.63;;;0.63;;
3999;SDS011;2014;53.604;10.112;2022-09-01T15:06:22;0.87;;;0.50;;
3999;SDS011;2014;53.604;10.112;2022-09-01T15:08:49;1.73;;;0.67;;
3999;SDS011;2014;53.604;10.112;2022-09-01T15:11:18;0.60;;;0.60;;
3999;SDS011;2014;53.604;10.112;2022-09-01T15:13:47;0.60;;;0.60;;
3999;SDS011;2014;53.604;10.112;2022-09-01T15:16:17;0.60;;;0.60;;
3999;SDS011;2014;53.604;10.112;2022-09-01T15:18:45;0.80;;;0.70;;
3999;SDS011;2014;53.604;10.112;2022-09-01T15:21:17;0.83;;;0.60;;
3999;SDS011;2014;53.604;10.112;2022-09-01T15:23:46;1.00;;;0.83;;
3999;SDS011;2014;53.604;10.112;2022-09-01T15:26:14;0.70;;;0.60;;
3999;SDS011;2014;53.604;10.112;2022-09-01T15:28:42;3.20;;;0.60;;
3999;SDS011;2014;53.604;10.112;2022-09-01T15:31:09;2.67;;;0.70;;
3999;SDS011;2014;53.604;10.112;2022-09-01T15:33:37;0.80;;;0.67;;